createdAt,value
2022-11-27T00:03:43.267Z,14.68
2022-11-27T00:06:31.482Z,14.82
2022-11-27T00:09:18.620Z,15.07
2022-11-27T00:12:05.992Z,14.02
2022-11-27T00:14:55.554Z,14.25
2022-11-27T00:17:42.965Z,13.80
2022-11-27T00:20:30.216Z,15.80
2022-11-27T00:23:17.301Z,15.23
2022-11-27T00:26:05.943Z,13.73
2022-11-27T00:28:53.182Z,14.52
2022-11-27T00:31:40.383Z,14.85
2022-11-27T00:34:27.574Z,15.52
2022-11-27T00:37:15.197Z,13.60
2022-11-27T00:40:02.321Z,13.50
2022-11-27T00:42:49.723Z,14.50
2022-11-27T00:45:36.953Z,14.85
2022-11-27T00:48:24.089Z,13.98
2022-11-27T00:51:15.197Z,13.18
2022-11-27T00:54:02.604Z,14.30
2022-11-27T00:56:49.781Z,13.15
2022-11-27T00:59:36.895Z,15.57
2022-11-27T01:02:23.966Z,16.05
2022-11-27T01:05:11.425Z,14.52
2022-11-27T01:07:58.581Z,15.40
2022-11-27T01:10:54.919Z,14.77
2022-11-27T01:13:42.961Z,15.57
2022-11-27T01:16:33.615Z,15.27
2022-11-27T01:19:20.849Z,15.60
2022-11-27T01:22:07.965Z,16.85
2022-11-27T01:24:55.027Z,18.70
2022-11-27T01:27:42.110Z,18.42
2022-11-27T01:30:29.873Z,18.42
2022-11-27T01:33:17.876Z,18.95
2022-11-27T01:36:06.622Z,18.85
2022-11-27T01:38:54.212Z,17.58
2022-11-27T01:41:41.464Z,17.35
2022-11-27T01:44:28.529Z,19.55
2022-11-27T01:47:23.129Z,18.55
2022-11-27T01:50:37.717Z,17.25
2022-11-27T01:53:25.062Z,17.60
2022-11-27T01:56:12.442Z,18.98
2022-11-27T01:59:00.297Z,20.73
2022-11-27T02:01:47.487Z,17.77
2022-11-27T02:04:34.524Z,17.75
2022-11-27T02:07:22.074Z,25.60
2022-11-27T02:10:09.909Z,18.70
2022-11-27T02:13:04.778Z,18.30
2022-11-27T02:15:59.886Z,16.40
2022-11-27T02:18:49.650Z,16.67
2022-11-27T02:21:50.498Z,18.42
2022-11-27T02:24:55.365Z,20.02
2022-11-27T02:28:06.588Z,20.38
2022-11-27T02:31:03.533Z,19.83
2022-11-27T02:33:56.383Z,21.38
2022-11-27T02:36:50.018Z,26.38
2022-11-27T02:39:49.256Z,23.80
2022-11-27T02:42:40.865Z,23.07
2022-11-27T02:45:36.919Z,21.35
2022-11-27T02:48:33.747Z,21.58
2022-11-27T02:51:26.532Z,24.42
2022-11-27T02:54:20.644Z,26.48
2022-11-27T02:57:10.356Z,27.60
2022-11-27T02:59:58.293Z,26.85
2022-11-27T03:02:56.990Z,25.52
2022-11-27T03:05:48.548Z,25.30
2022-11-27T03:08:39.140Z,22.85
2022-11-27T03:11:30.910Z,21.20
2022-11-27T03:14:20.483Z,23.17
2022-11-27T03:17:52.580Z,22.40
2022-11-27T03:20:43.541Z,22.17
2022-11-27T03:23:30.723Z,22.85
2022-11-27T03:26:17.935Z,22.55
2022-11-27T03:29:09.671Z,19.75
2022-11-27T03:31:58.157Z,19.83
2022-11-27T03:34:46.960Z,19.35
2022-11-27T03:37:34.073Z,19.75
2022-11-27T03:40:26.469Z,19.73
2022-11-27T03:43:24.185Z,19.58
2022-11-27T03:46:22.411Z,19.88
2022-11-27T03:49:16.585Z,20.27
2022-11-27T03:52:27.062Z,18.42
2022-11-27T03:55:27.787Z,18.73
2022-11-27T03:58:27.397Z,17.63
2022-11-27T04:01:17.943Z,18.58
2022-11-27T04:04:05.259Z,18.02
2022-11-27T04:06:52.362Z,17.80
2022-11-27T04:09:39.487Z,18.75
2022-11-27T04:12:26.538Z,18.67
2022-11-27T04:15:14.251Z,17.20
2022-11-27T04:18:01.406Z,18.10
2022-11-27T04:20:48.542Z,17.95
2022-11-27T04:23:37.823Z,20.08
2022-11-27T04:26:24.966Z,19.87
2022-11-27T04:29:12.088Z,17.90
2022-11-27T04:31:59.253Z,18.45
2022-11-27T04:34:46.333Z,17.63
2022-11-27T04:37:33.568Z,17.50
2022-11-27T04:40:20.699Z,15.68
2022-11-27T04:43:08.249Z,16.38
2022-11-27T04:45:55.646Z,13.82
2022-11-27T04:48:43.187Z,14.10
2022-11-27T04:51:30.625Z,14.20
2022-11-27T04:54:18.274Z,15.90
2022-11-27T04:57:06.078Z,15.40
2022-11-27T05:02:29.236Z,14.75
2022-11-27T05:05:17.425Z,16.00
2022-11-27T05:08:04.701Z,14.65
2022-11-27T05:11:00.590Z,13.95
2022-11-27T05:13:47.689Z,13.25
2022-11-27T05:16:34.805Z,13.93
2022-11-27T05:19:24.666Z,13.07
2022-11-27T05:22:11.819Z,12.95
2022-11-27T05:24:58.851Z,12.75
2022-11-27T05:27:45.961Z,12.00
2022-11-27T05:30:33.040Z,12.50
2022-11-27T05:33:20.225Z,13.70
2022-11-27T05:36:07.511Z,12.32
2022-11-27T05:38:54.768Z,12.77
2022-11-27T05:41:43.304Z,13.35
2022-11-27T05:44:30.546Z,12.20
2022-11-27T05:47:17.561Z,12.98
2022-11-27T05:50:07.585Z,13.18
2022-11-27T05:52:54.590Z,13.85
2022-11-27T05:55:41.632Z,15.02
2022-11-27T05:58:28.688Z,15.75
2022-11-27T06:01:18.250Z,14.80
2022-11-27T06:04:05.517Z,15.40
2022-11-27T06:06:52.585Z,15.70
2022-11-27T06:09:39.665Z,13.20
2022-11-27T06:12:26.801Z,13.68
2022-11-27T06:15:13.917Z,13.30
2022-11-27T06:18:01.093Z,12.52
2022-11-27T06:20:59.223Z,11.95
2022-11-27T06:23:46.680Z,12.98
2022-11-27T06:26:34.200Z,13.00
2022-11-27T06:29:21.265Z,13.02
2022-11-27T06:32:08.455Z,12.65
2022-11-27T06:34:55.732Z,11.88
2022-11-27T06:37:42.760Z,12.77
2022-11-27T06:40:29.828Z,12.55
2022-11-27T06:43:16.892Z,12.20
2022-11-27T06:46:05.637Z,11.98
2022-11-27T06:48:54.251Z,11.85
2022-11-27T06:51:42.391Z,11.38
2022-11-27T06:54:31.464Z,11.68
2022-11-27T06:57:18.510Z,10.50
2022-11-27T07:00:06.986Z,11.55
2022-11-27T07:02:55.748Z,10.93
2022-11-27T07:05:42.863Z,10.55
2022-11-27T07:08:31.220Z,10.80
2022-11-27T07:11:21.096Z,11.20
2022-11-27T07:14:08.350Z,10.20
2022-11-27T07:16:56.431Z,10.57
2022-11-27T07:19:43.730Z,10.32
2022-11-27T07:22:32.670Z,13.43
2022-11-27T07:25:19.898Z,14.15
2022-11-27T07:28:07.133Z,14.80
2022-11-27T07:31:06.790Z,13.95
2022-11-27T07:33:56.099Z,15.77
2022-11-27T07:36:43.233Z,13.27
2022-11-27T07:39:54.432Z,14.65
2022-11-27T07:42:38.715Z,15.95
2022-11-27T07:45:29.502Z,15.88
2022-11-27T07:51:06.726Z,20.02
2022-11-27T07:53:53.817Z,16.40
2022-11-27T07:56:40.870Z,18.70
2022-11-27T07:59:33.003Z,17.00
2022-11-27T08:02:20.095Z,18.45
2022-11-27T08:05:12.460Z,17.52
2022-11-27T08:08:01.467Z,17.35
2022-11-27T08:10:48.815Z,18.13
2022-11-27T08:13:35.863Z,17.30
2022-11-27T08:16:23.046Z,18.08
2022-11-27T08:19:11.000Z,19.75
2022-11-27T08:21:58.528Z,18.90
2022-11-27T08:24:48.836Z,17.30
2022-11-27T08:27:36.492Z,19.30
2022-11-27T08:30:26.319Z,18.05
2022-11-27T08:33:19.161Z,17.70
2022-11-27T08:36:10.616Z,16.92
2022-11-27T08:39:01.728Z,16.95
2022-11-27T08:41:48.819Z,16.67
2022-11-27T08:44:36.852Z,15.30
2022-11-27T08:47:23.906Z,14.20
2022-11-27T08:50:10.967Z,14.63
2022-11-27T08:52:57.926Z,14.50
2022-11-27T08:55:45.556Z,16.02
2022-11-27T08:58:32.880Z,13.75
2022-11-27T09:01:25.864Z,14.90
2022-11-27T09:04:13.016Z,14.82
2022-11-27T09:07:00.137Z,14.82
2022-11-27T09:09:47.237Z,14.23
2022-11-27T09:12:35.722Z,14.23
2022-11-27T09:15:25.239Z,13.57
2022-11-27T09:18:14.442Z,13.05
2022-11-27T09:21:10.757Z,13.13
2022-11-27T09:24:00.159Z,13.52
2022-11-27T09:26:47.459Z,10.77
2022-11-27T09:29:35.322Z,12.23
2022-11-27T09:32:23.221Z,11.52
2022-11-27T09:35:11.573Z,11.25
2022-11-27T09:37:59.068Z,10.68
2022-11-27T09:40:51.641Z,11.40
2022-11-27T09:43:57.931Z,11.35
2022-11-27T09:46:45.444Z,10.95
2022-11-27T09:49:41.789Z,11.40
2022-11-27T09:52:42.206Z,11.02
2022-11-27T09:55:44.626Z,10.38
2022-11-27T09:58:40.803Z,11.98
2022-11-27T10:01:36.594Z,10.40
2022-11-27T10:04:30.458Z,11.57
2022-11-27T10:07:50.835Z,10.13
2022-11-27T10:11:25.940Z,11.63
2022-11-27T10:14:28.161Z,11.45
2022-11-27T10:17:23.358Z,10.80
2022-11-27T10:20:29.432Z,11.02
2022-11-27T10:23:54.709Z,11.73
2022-11-27T10:26:47.311Z,11.35
2022-11-27T10:29:50.268Z,11.05
2022-11-27T10:32:56.087Z,11.15
2022-11-27T10:35:45.046Z,10.75
2022-11-27T10:38:39.277Z,10.68
2022-11-27T10:41:48.888Z,11.35
2022-11-27T10:44:44.495Z,10.18
2022-11-27T10:47:33.935Z,11.27
2022-11-27T10:50:21.309Z,11.43
2022-11-27T10:53:18.132Z,11.15
2022-11-27T10:56:05.164Z,11.48
2022-11-27T10:58:58.235Z,10.82
2022-11-27T11:01:48.813Z,11.50
2022-11-27T11:04:38.311Z,11.23
2022-11-27T11:10:30.046Z,11.32
2022-11-27T11:13:20.482Z,12.52
2022-11-27T11:16:24.417Z,11.18
2022-11-27T11:19:23.650Z,12.38
2022-11-27T11:22:16.597Z,12.18
2022-11-27T11:25:03.752Z,12.88
2022-11-27T11:27:52.728Z,12.30
2022-11-27T11:30:39.857Z,11.88
2022-11-27T11:33:28.061Z,12.23
2022-11-27T11:36:15.528Z,11.13
2022-11-27T11:39:02.828Z,11.35
2022-11-27T11:41:50.066Z,11.80
2022-11-27T11:44:39.181Z,11.07
2022-11-27T11:47:26.972Z,10.97
2022-11-27T11:50:17.028Z,10.63
2022-11-27T11:53:38.834Z,10.85
2022-11-27T11:56:33.836Z,11.30
2022-11-27T11:59:37.563Z,10.57
2022-11-27T12:02:50.508Z,10.55
2022-11-27T12:05:37.625Z,10.55
2022-11-27T12:08:25.305Z,10.68
2022-11-27T12:11:23.827Z,10.32
2022-11-27T12:14:22.779Z,10.15
2022-11-27T12:17:44.281Z,10.02
2022-11-27T12:20:52.468Z,10.07
2022-11-27T12:24:01.180Z,9.23
2022-11-27T12:26:56.799Z,9.65
2022-11-27T12:30:09.013Z,9.68
2022-11-27T12:33:18.457Z,9.85
2022-11-27T12:36:41.271Z,9.23
2022-11-27T12:39:54.889Z,8.63
2022-11-27T12:42:51.009Z,8.07
2022-11-27T12:45:44.300Z,8.13
2022-11-27T12:48:36.796Z,8.23
2022-11-27T12:51:32.535Z,6.88
2022-11-27T12:54:29.968Z,7.75
2022-11-27T12:57:23.965Z,7.10
2022-11-27T13:00:24.269Z,5.93
2022-11-27T13:03:53.326Z,5.47
2022-11-27T13:06:55.298Z,5.40
2022-11-27T13:09:58.294Z,5.25
2022-11-27T13:13:13.612Z,4.40
2022-11-27T13:16:25.377Z,4.63
2022-11-27T13:19:25.778Z,4.72
2022-11-27T13:22:20.899Z,5.70
2022-11-27T13:25:14.976Z,4.75
2022-11-27T13:28:05.488Z,5.60
2022-11-27T13:30:55.928Z,4.88
2022-11-27T13:33:46.018Z,5.50
2022-11-27T13:36:42.196Z,4.85
2022-11-27T13:39:34.223Z,5.10
2022-11-27T13:42:22.504Z,5.07
2022-11-27T13:45:19.490Z,4.55
2022-11-27T13:48:29.408Z,4.65
2022-11-27T13:51:32.528Z,4.20
2022-11-27T13:54:27.484Z,3.75
2022-11-27T13:57:18.461Z,4.00
2022-11-27T14:00:10.415Z,4.90
2022-11-27T14:02:57.875Z,5.32
2022-11-27T14:05:45.896Z,4.90
2022-11-27T14:08:35.564Z,5.25
2022-11-27T14:11:34.115Z,5.47
2022-11-27T14:14:25.090Z,4.82
2022-11-27T14:17:26.993Z,5.45
2022-11-27T14:20:16.985Z,5.40
2022-11-27T14:23:12.460Z,4.93
2022-11-27T14:26:20.704Z,4.78
2022-11-27T14:29:12.638Z,4.30
2022-11-27T14:32:02.409Z,4.50
2022-11-27T14:34:50.528Z,4.20
2022-11-27T14:37:38.006Z,4.18
2022-11-27T14:40:27.534Z,4.82
2022-11-27T14:43:18.650Z,4.93
2022-11-27T14:46:12.403Z,4.25
2022-11-27T14:49:00.332Z,4.50
2022-11-27T14:51:49.348Z,4.32
2022-11-27T14:54:39.809Z,3.45
2022-11-27T14:57:29.540Z,3.25
2022-11-27T15:00:27.252Z,3.70
2022-11-27T15:03:18.549Z,3.90
2022-11-27T15:06:08.296Z,3.72
2022-11-27T15:09:23.834Z,3.42
2022-11-27T15:12:15.022Z,2.80
2022-11-27T15:15:08.581Z,3.25
2022-11-27T15:17:59.324Z,3.88
2022-11-27T15:20:47.316Z,2.60
2022-11-27T15:23:35.933Z,4.25
2022-11-27T15:26:36.856Z,3.50
2022-11-27T15:29:36.285Z,3.25
2022-11-27T15:32:25.802Z,3.15
2022-11-27T15:35:15.153Z,2.47
2022-11-27T15:38:10.847Z,2.90
2022-11-27T15:41:02.512Z,3.50
2022-11-27T15:43:50.525Z,3.08
2022-11-27T15:46:37.884Z,2.88
2022-11-27T15:49:25.862Z,2.97
2022-11-27T15:52:13.622Z,3.38
2022-11-27T15:55:01.398Z,3.42
2022-11-27T15:57:49.178Z,4.38
2022-11-27T16:00:36.596Z,4.25
2022-11-27T16:03:23.964Z,4.07
2022-11-27T16:06:11.422Z,3.28
2022-11-27T16:09:00.760Z,3.35
2022-11-27T16:11:48.461Z,3.35
2022-11-27T16:14:35.719Z,3.60
2022-11-27T16:17:22.968Z,3.60
2022-11-27T16:20:10.730Z,3.90
2022-11-27T16:22:57.879Z,4.38
2022-11-27T16:25:45.197Z,4.80
2022-11-27T16:28:33.186Z,4.50
2022-11-27T16:31:22.387Z,5.03
2022-11-27T16:34:10.688Z,6.75
2022-11-27T16:36:58.357Z,4.85
2022-11-27T16:39:45.849Z,4.93
2022-11-27T16:42:33.722Z,5.93
2022-11-27T16:45:21.470Z,6.07
2022-11-27T16:48:08.786Z,7.38
2022-11-27T16:51:07.537Z,7.10
2022-11-27T16:53:56.675Z,6.65
2022-11-27T16:56:44.989Z,6.85
2022-11-27T16:59:32.918Z,9.00
2022-11-27T17:02:20.824Z,41.85
2022-11-27T17:05:10.049Z,90.20
2022-11-27T17:07:57.906Z,29.88
2022-11-27T17:10:45.600Z,24.40
2022-11-27T17:13:33.276Z,27.65
2022-11-27T17:16:23.290Z,24.90
2022-11-27T17:19:16.585Z,16.63
2022-11-27T17:22:04.714Z,14.50
2022-11-27T17:24:58.485Z,10.57
2022-11-27T17:27:46.003Z,9.10
2022-11-27T17:30:37.944Z,8.35
2022-11-27T17:33:28.025Z,7.32
2022-11-27T17:36:16.712Z,8.15
2022-11-27T17:39:06.150Z,10.05
2022-11-27T17:41:53.588Z,9.95
2022-11-27T17:44:43.247Z,7.47
2022-11-27T17:47:30.780Z,6.95
2022-11-27T17:50:18.104Z,6.55
2022-11-27T17:53:06.044Z,6.80
2022-11-27T17:55:55.647Z,6.72
2022-11-27T17:58:43.911Z,6.38
2022-11-27T18:01:35.254Z,6.60
2022-11-27T18:04:23.736Z,6.82
2022-11-27T18:07:12.518Z,6.57
2022-11-27T18:10:01.656Z,7.10
2022-11-27T18:12:50.509Z,6.85
2022-11-27T18:15:38.245Z,7.68
2022-11-27T18:18:26.085Z,6.53
2022-11-27T18:21:20.114Z,6.25
2022-11-27T18:24:22.977Z,6.55
2022-11-27T18:27:15.861Z,6.18
2022-11-27T18:30:05.255Z,6.68
2022-11-27T18:32:53.183Z,5.63
2022-11-27T18:35:46.903Z,6.65
2022-11-27T18:38:42.219Z,7.03
2022-11-27T18:41:30.079Z,6.88
2022-11-27T18:44:19.760Z,9.55
2022-11-27T18:47:10.585Z,7.75
2022-11-27T18:50:00.247Z,8.13
2022-11-27T18:52:48.762Z,7.68
2022-11-27T18:55:40.833Z,7.82
2022-11-27T18:58:31.284Z,8.75
2022-11-27T19:01:22.848Z,8.98
2022-11-27T19:04:11.991Z,9.77
2022-11-27T19:07:00.032Z,10.60
2022-11-27T19:09:50.960Z,10.95
2022-11-27T19:12:39.048Z,11.25
2022-11-27T19:15:26.690Z,10.63
2022-11-27T19:18:14.858Z,11.23
2022-11-27T19:21:07.988Z,10.85
2022-11-27T19:23:57.841Z,12.15
2022-11-27T19:26:46.088Z,10.88
2022-11-27T19:29:33.798Z,11.15
2022-11-27T19:32:26.609Z,11.43
2022-11-27T19:35:15.302Z,10.88
2022-11-27T19:38:05.888Z,10.82
2022-11-27T19:40:54.261Z,10.88
2022-11-27T19:43:42.686Z,11.18
2022-11-27T19:46:32.923Z,10.20
2022-11-27T19:49:22.610Z,9.65
2022-11-27T19:52:11.085Z,9.90
2022-11-27T19:54:59.166Z,8.80
2022-11-27T19:57:46.816Z,11.13
2022-11-27T20:00:35.030Z,10.63
2022-11-27T20:03:23.094Z,9.07
2022-11-27T20:06:15.931Z,9.85
2022-11-27T20:09:06.690Z,8.98
2022-11-27T20:11:54.511Z,9.82
2022-11-27T20:14:42.243Z,9.60
2022-11-27T20:17:30.822Z,8.65
2022-11-27T20:20:19.984Z,8.38
2022-11-27T20:23:08.100Z,8.88
2022-11-27T20:25:56.378Z,8.65
2022-11-27T20:28:46.711Z,8.55
2022-11-27T20:31:38.308Z,8.93
2022-11-27T20:34:27.101Z,9.75
2022-11-27T20:37:15.448Z,8.63
2022-11-27T20:40:02.786Z,9.68
2022-11-27T20:42:50.408Z,10.10
2022-11-27T20:45:42.247Z,9.13
2022-11-27T20:48:30.689Z,9.90
2022-11-27T20:51:21.198Z,10.00
2022-11-27T20:54:11.890Z,10.15
2022-11-27T20:57:00.038Z,11.02
2022-11-27T20:59:47.540Z,13.32
2022-11-27T21:02:37.225Z,13.70
2022-11-27T21:05:24.452Z,12.27
2022-11-27T21:08:12.283Z,12.98
2022-11-27T21:11:07.620Z,10.80
2022-11-27T21:13:58.631Z,11.93
2022-11-27T21:16:49.061Z,11.82
2022-11-27T21:19:36.827Z,10.88
2022-11-27T21:22:24.318Z,10.82
2022-11-27T21:25:11.960Z,11.82
2022-11-27T21:27:59.832Z,11.13
2022-11-27T21:30:46.846Z,10.52
2022-11-27T21:33:35.094Z,10.38
2022-11-27T21:36:25.004Z,11.45
2022-11-27T21:39:13.550Z,10.82
2022-11-27T21:42:00.540Z,14.63
2022-11-27T21:44:47.614Z,44.78
2022-11-27T21:47:37.511Z,48.78
2022-11-27T21:50:24.583Z,15.30
2022-11-27T21:53:11.603Z,18.75
2022-11-27T21:55:58.987Z,11.75
2022-11-27T21:58:46.518Z,13.07
2022-11-27T22:01:33.706Z,9.73
2022-11-27T22:04:21.430Z,13.18
2022-11-27T22:07:08.549Z,13.88
2022-11-27T22:09:55.558Z,11.27
2022-11-27T22:12:42.603Z,11.32
2022-11-27T22:15:29.641Z,11.63
2022-11-27T22:18:16.881Z,11.85
2022-11-27T22:21:05.248Z,10.57
2022-11-27T22:23:52.322Z,10.82
2022-11-27T22:26:40.151Z,11.57
2022-11-27T22:29:27.299Z,11.35
2022-11-27T22:32:14.340Z,11.98
2022-11-27T22:35:01.358Z,11.80
2022-11-27T22:37:48.382Z,14.27
2022-11-27T22:40:35.577Z,17.05
2022-11-27T22:43:22.559Z,14.10
2022-11-27T22:46:16.574Z,13.90
2022-11-27T22:49:05.911Z,15.85
2022-11-27T22:51:53.377Z,13.98
2022-11-27T22:54:40.701Z,13.98
2022-11-27T22:57:27.987Z,13.25
2022-11-27T23:00:15.443Z,16.92
2022-11-27T23:03:02.705Z,14.50
2022-11-27T23:05:50.013Z,14.20
2022-11-27T23:08:37.275Z,13.93
2022-11-27T23:11:26.747Z,12.95
2022-11-27T23:14:13.837Z,13.07
2022-11-27T23:17:00.934Z,13.73
2022-11-27T23:19:48.008Z,14.18
2022-11-27T23:22:35.785Z,15.10
2022-11-27T23:25:22.802Z,15.77
2022-11-27T23:28:09.961Z,17.10
2022-11-27T23:31:22.215Z,15.45
2022-11-27T23:34:07.950Z,14.40
2022-11-27T23:36:55.150Z,18.85
2022-11-27T23:39:42.202Z,18.30
2022-11-27T23:42:29.310Z,18.77
2022-11-27T23:45:16.598Z,18.35
2022-11-27T23:48:03.923Z,18.08
2022-11-27T23:50:50.882Z,17.10
2022-11-27T23:53:38.193Z,17.20
2022-11-27T23:56:28.096Z,16.48
2022-11-27T23:59:15.121Z,16.05
